Time;durP1;ratioP1;P1;durP2;ratioP2;P2;SDS_P1;SDS_P2;PMS_P1;PMS_P2;Temp;Humidity;BMP_temperature;BMP_pressure;BME280_temperature;BME280_humidity;BME280_pressure;Samples;Min_cycle;Max_cycle;Signal;HPM_P1;HPM_P2
2023/11/20 00:00:06;;;;;;;0.90;0.40;;;;;;;0.54;100.00;99173.06;109444;1255;66856;-77
2023/11/20 00:02:42;;;;;;;0.70;0.30;;;;;;;0.55;100.00;99170.60;109417;1254;71406;-71
2023/11/20 00:05:11;;;;;;;1.20;0.30;;;;;;;0.55;100.00;99167.86;109420;1251;61141;-76
2023/11/20 00:07:38;;;;;;;0.70;0.30;;;;;;;0.54;100.00;99164.35;109382;1251;60074;-75
2023/11/20 00:10:07;;;;;;;1.80;0.30;;;;;;;0.54;100.00;99159.92;109395;1251;74717;-75
2023/11/20 00:12:35;;;;;;;1.20;0.40;;;;;;;0.54;100.00;99154.15;109377;1250;66158;-73
2023/11/20 00:15:03;;;;;;;0.70;0.30;;;;;;;0.52;100.00;99143.14;109459;1251;72727;-76
2023/11/20 00:17:31;;;;;;;0.80;0.20;;;;;;;0.53;100.00;99138.12;109469;1256;60128;-76
2023/11/20 00:19:58;;;;;;;0.40;0.20;;;;;;;0.54;100.00;99139.05;109478;1251;59046;-76
2023/11/20 00:22:26;;;;;;;0.90;0.30;;;;;;;0.54;100.00;99138.23;109494;1251;73437;-77
2023/11/20 00:24:53;;;;;;;0.80;0.40;;;;;;;0.53;100.00;99139.02;109408;1250;65639;-72
2023/11/20 00:27:21;;;;;;;1.20;0.30;;;;;;;0.52;100.00;99137.05;109454;1251;71816;-77
2023/11/20 00:29:49;;;;;;;1.20;0.40;;;;;;;0.52;100.00;99133.42;109464;1255;60270;-75
2023/11/20 00:32:16;;;;;;;0.90;0.30;;;;;;;0.52;100.00;99138.38;109492;1251;60113;-76
2023/11/20 00:34:44;;;;;;;1.10;0.30;;;;;;;0.53;100.00;99139.33;109478;1250;74577;-73
2023/11/20 00:37:11;;;;;;;1.40;0.40;;;;;;;0.53;100.00;99130.42;109492;1252;65519;-76
2023/11/20 00:39:41;;;;;;;0.60;0.20;;;;;;;0.53;100.00;99124.79;109489;1251;72686;-78
2023/11/20 00:42:09;;;;;;;0.70;0.20;;;;;;;0.54;100.00;99114.31;109484;1251;59890;-79
2023/11/20 00:44:37;;;;;;;0.60;0.20;;;;;;;0.53;100.00;99115.42;109433;1250;60453;-76
2023/11/20 00:47:05;;;;;;;0.70;0.30;;;;;;;0.53;100.00;99118.68;109408;1254;73421;-77
2023/11/20 00:49:32;;;;;;;0.50;0.20;;;;;;;0.53;100.00;99113.02;109514;1250;66309;-78
2023/11/20 00:52:01;;;;;;;0.50;0.20;;;;;;;0.53;100.00;99110.75;109442;1250;72756;-79
2023/11/20 00:54:29;;;;;;;0.80;0.30;;;;;;;0.56;100.00;99118.91;109376;1251;59632;-79
2023/11/20 00:56:56;;;;;;;0.40;0.10;;;;;;;0.56;100.00;99123.45;109507;1251;60093;-80
2023/11/20 00:59:24;;;;;;;1.60;0.30;;;;;;;0.57;100.00;99131.63;109369;1251;73429;-81
2023/11/20 01:01:52;;;;;;;0.60;0.20;;;;;;;0.56;100.00;99136.34;109525;1251;65476;-80
2023/11/20 01:04:20;;;;;;;0.60;0.30;;;;;;;0.55;100.00;99129.89;109387;1251;71411;-78
2023/11/20 01:06:49;;;;;;;0.70;0.20;;;;;;;0.55;100.00;99121.88;109325;1251;59704;-81
2023/11/20 01:09:17;;;;;;;0.60;0.20;;;;;;;0.54;100.00;99123.20;109467;1251;60218;-80
2023/11/20 01:11:45;;;;;;;1.00;0.20;;;;;;;0.54;100.00;99131.56;109488;1251;75062;-78
2023/11/20 01:14:12;;;;;;;0.60;0.30;;;;;;;0.54;100.00;99134.28;109406;1251;65985;-79
2023/11/20 01:16:41;;;;;;;0.60;0.30;;;;;;;0.53;100.00;99132.48;109452;1251;73368;-78
2023/11/20 01:19:09;;;;;;;0.80;0.40;;;;;;;0.53;100.00;99126.20;109330;1251;59624;-77
2023/11/20 01:21:37;;;;;;;0.80;0.30;;;;;;;0.53;100.00;99124.80;109434;1251;60130;-77
2023/11/20 01:24:06;;;;;;;1.00;0.30;;;;;;;0.53;100.00;99116.46;109497;1251;73422;-77
2023/11/20 01:26:36;;;;;;;0.60;0.30;;;;;;;0.54;100.00;99110.39;109484;1251;66980;-77
2023/11/20 01:29:04;;;;;;;0.60;0.20;;;;;;;0.53;100.00;99102.22;109381;1251;71228;-77
2023/11/20 01:31:31;;;;;;;1.50;0.50;;;;;;;0.52;100.00;99101.17;109460;1250;60892;-77
2023/11/20 01:33:59;;;;;;;0.60;0.30;;;;;;;0.50;100.00;99104.56;109432;1250;60122;-76
2023/11/20 01:36:27;;;;;;;0.80;0.30;;;;;;;0.48;100.00;99104.05;109468;1251;73430;-76
2023/11/20 01:38:54;;;;;;;0.80;0.30;;;;;;;0.46;100.00;99096.17;109483;1251;65714;-76
2023/11/20 01:41:22;;;;;;;0.40;0.20;;;;;;;0.46;100.00;99085.98;109439;1251;72720;-77
2023/11/20 01:43:50;;;;;;;1.00;0.30;;;;;;;0.47;100.00;99078.04;109414;1251;60535;-75
2023/11/20 01:46:18;;;;;;;0.80;0.30;;;;;;;0.46;100.00;99082.89;109452;1250;58849;-76
2023/11/20 01:48:46;;;;;;;0.40;0.20;;;;;;;0.45;100.00;99066.89;109472;1251;76933;-76
2023/11/20 01:51:14;;;;;;;0.50;0.20;;;;;;;0.45;100.00;99056.38;109498;1250;65231;-75
2023/11/20 01:53:41;;;;;;;0.50;0.20;;;;;;;0.44;100.00;99070.98;109337;1251;72763;-76
2023/11/20 01:56:09;;;;;;;0.40;0.20;;;;;;;0.42;100.00;99075.59;109317;1250;60847;-76
2023/11/20 01:58:36;;;;;;;0.60;0.20;;;;;;;0.40;100.00;99072.52;109543;1250;58917;-75
2023/11/20 02:01:04;;;;;;;0.50;0.20;;;;;;;0.41;100.00;99076.67;109371;1250;73664;-74
2023/11/20 02:03:32;;;;;;;0.20;0.10;;;;;;;0.40;100.00;99086.85;109316;1251;67039;-74
2023/11/20 02:06:01;;;;;;;0.50;0.20;;;;;;;0.40;100.00;99086.73;109451;1250;72756;-75
2023/11/20 02:08:28;;;;;;;0.40;0.20;;;;;;;0.39;100.00;99086.30;109467;1251;61032;-74
2023/11/20 02:10:58;;;;;;;0.20;0.10;;;;;;;0.40;100.00;99088.27;109477;1251;59078;-74
2023/11/20 02:13:27;;;;;;;0.50;0.20;;;;;;;0.40;100.00;99083.27;109452;1250;74751;-74
2023/11/20 02:15:55;;;;;;;0.90;0.30;;;;;;;0.41;100.00;99080.00;109432;1254;67356;-73
2023/11/20 02:18:29;;;;;;;0.40;0.10;;;;;;;0.40;100.00;99076.08;109379;1251;72196;-73
2023/11/20 02:20:57;;;;;;;0.80;0.30;;;;;;;0.41;100.00;99071.27;109360;1251;61039;-75
2023/11/20 02:23:25;;;;;;;0.30;0.10;;;;;;;0.42;100.00;99070.33;109467;1251;58977;-78
2023/11/20 02:26:09;;;;;;;0.60;0.30;;;;;;;0.42;100.00;99071.30;109286;1254;73762;-74
2023/11/20 02:28:40;;;;;;;0.70;0.30;;;;;;;0.41;100.00;99067.65;109393;1251;66978;-73
2023/11/20 02:31:07;;;;;;;1.00;0.30;;;;;;;0.40;100.00;99065.85;109292;1251;73196;-75
2023/11/20 02:33:36;;;;;;;1.10;0.30;;;;;;;0.40;100.00;99059.60;109451;1253;59827;-72
2023/11/20 02:36:04;;;;;;;0.50;0.20;;;;;;;0.39;100.00;99055.52;109209;1251;59078;-70
2023/11/20 02:38:33;;;;;;;0.60;0.20;;;;;;;0.39;100.00;99049.77;109273;1251;74758;-71
2023/11/20 02:41:01;;;;;;;0.60;0.20;;;;;;;0.38;100.00;99044.20;109346;1251;67128;-73
2023/11/20 02:43:30;;;;;;;0.70;0.20;;;;;;;0.36;100.00;99036.85;109261;1251;72914;-72
2023/11/20 02:45:58;;;;;;;1.10;0.30;;;;;;;0.35;100.00;99035.50;109404;1251;59454;-74
2023/11/20 02:48:26;;;;;;;0.40;0.20;;;;;;;0.32;100.00;99028.05;109477;1250;59054;-74
2023/11/20 02:50:53;;;;;;;0.50;0.20;;;;;;;0.30;100.00;99025.63;109309;1251;74795;-75
2023/11/20 02:53:21;;;;;;;0.90;0.20;;;;;;;0.29;100.00;99020.45;109447;1250;66938;-75
2023/11/20 02:55:50;;;;;;;0.70;0.30;;;;;;;0.27;100.00;99019.67;109491;1251;72766;-74
2023/11/20 02:58:18;;;;;;;0.80;0.20;;;;;;;0.27;100.00;99011.83;109411;1251;61190;-74
2023/11/20 03:00:46;;;;;;;0.30;0.20;;;;;;;0.26;100.00;99005.23;109393;1251;59372;-74
2023/11/20 03:03:15;;;;;;;1.70;0.30;;;;;;;0.26;100.00;99003.18;109443;1251;75139;-74
2023/11/20 03:05:44;;;;;;;0.80;0.30;;;;;;;0.24;100.00;98996.10;109470;1251;66959;-75
2023/11/20 03:08:11;;;;;;;0.50;0.20;;;;;;;0.24;100.00;98994.98;109370;1251;72863;-75
2023/11/20 03:10:39;;;;;;;0.70;0.30;;;;;;;0.22;100.00;98986.92;109390;1250;60831;-75
2023/11/20 03:13:07;;;;;;;0.70;0.30;;;;;;;0.21;100.00;98988.45;109365;1251;59840;-76
2023/11/20 03:15:37;;;;;;;0.90;0.30;;;;;;;0.20;100.00;98982.52;109375;1253;73459;-75
2023/11/20 03:18:05;;;;;;;1.50;0.60;;;;;;;0.21;100.00;98985.34;109406;1250;66957;-75
2023/11/20 03:20:33;;;;;;;1.00;0.40;;;;;;;0.20;100.00;98984.09;109368;1251;72192;-75
2023/11/20 03:23:01;;;;;;;0.90;0.30;;;;;;;0.18;100.00;98981.21;109304;1251;60870;-76
2023/11/20 03:25:28;;;;;;;0.50;0.30;;;;;;;0.17;100.00;98976.02;109404;1250;60064;-75
2023/11/20 03:27:56;;;;;;;0.60;0.30;;;;;;;0.17;100.00;98981.27;109429;1251;73453;-74
2023/11/20 03:30:24;;;;;;;0.90;0.30;;;;;;;0.15;100.00;98973.59;109492;1251;66909;-73
2023/11/20 03:32:51;;;;;;;1.20;0.30;;;;;;;0.14;100.00;98971.27;109386;1253;71843;-77
2023/11/20 03:35:19;;;;;;;0.80;0.30;;;;;;;0.12;100.00;98971.16;109409;1253;61069;-74
2023/11/20 03:37:47;;;;;;;0.90;0.30;;;;;;;0.11;100.00;98972.80;109393;1250;59017;-75
2023/11/20 03:40:14;;;;;;;0.90;0.30;;;;;;;0.10;100.00;98968.42;109283;1251;74728;-73
2023/11/20 03:42:42;;;;;;;0.60;0.30;;;;;;;0.08;100.00;98964.20;109326;1251;65636;-73
2023/11/20 03:45:10;;;;;;;0.50;0.20;;;;;;;0.06;100.00;98963.73;109356;1251;73278;-73
2023/11/20 03:47:37;;;;;;;0.60;0.20;;;;;;;0.05;100.00;98966.92;109343;1251;59580;-72
2023/11/20 03:50:05;;;;;;;0.90;0.20;;;;;;;0.03;100.00;98965.40;109425;1250;60102;-72
2023/11/20 03:52:33;;;;;;;0.60;0.30;;;;;;;0.03;100.00;98963.66;109444;1250;74721;-72
2023/11/20 03:55:01;;;;;;;0.40;0.20;;;;;;;0.02;100.00;98963.15;109293;1253;66954;-72
2023/11/20 03:57:28;;;;;;;0.90;0.30;;;;;;;-0.01;100.00;98963.17;109351;1253;70715;-72
2023/11/20 03:59:56;;;;;;;0.40;0.20;;;;;;;-0.02;100.00;98961.04;109340;1253;61450;-72
2023/11/20 04:02:23;;;;;;;0.90;0.30;;;;;;;-0.02;100.00;98959.73;109545;1250;59923;-73
2023/11/20 04:04:52;;;;;;;0.40;0.10;;;;;;;-0.02;100.00;98964.88;109270;1251;73372;-72
2023/11/20 04:07:20;;;;;;;1.00;0.20;;;;;;;-0.04;100.00;98962.08;109480;1250;66191;-72
2023/11/20 04:09:48;;;;;;;0.40;0.20;;;;;;;-0.04;100.00;98966.42;109478;1250;72802;-72
2023/11/20 04:12:16;;;;;;;0.70;0.20;;;;;;;-0.05;100.00;98964.55;109466;1251;59618;-72
2023/11/20 04:14:43;;;;;;;0.90;0.30;;;;;;;-0.06;100.00;98965.59;109398;1250;59581;-72
2023/11/20 04:17:11;;;;;;;0.90;0.30;;;;;;;-0.08;100.00;98965.94;109458;1250;74850;-72
2023/11/20 04:19:39;;;;;;;0.60;0.20;;;;;;;-0.10;100.00;98964.20;109477;1250;65469;-71
2023/11/20 04:22:07;;;;;;;1.00;0.30;;;;;;;-0.12;100.00;98962.89;109469;1252;73193;-72
2023/11/20 04:24:35;;;;;;;0.50;0.20;;;;;;;-0.14;100.00;98960.87;109295;1254;60521;-71
2023/11/20 04:27:03;;;;;;;0.50;0.20;;;;;;;-0.15;100.00;98961.99;109458;1250;59011;-70
2023/11/20 04:29:30;;;;;;;0.70;0.30;;;;;;;-0.18;100.00;98961.58;109479;1250;75125;-71
2023/11/20 04:31:58;;;;;;;0.80;0.30;;;;;;;-0.19;100.00;98961.84;109422;1250;66941;-74
2023/11/20 04:34:26;;;;;;;0.80;0.30;;;;;;;-0.17;100.00;98960.20;109403;1250;72786;-73
2023/11/20 04:36:53;;;;;;;1.70;0.30;;;;;;;-0.17;100.00;98953.17;109429;1250;59684;-72
2023/11/20 04:39:21;;;;;;;25.50;9.40;;;;;;;-0.18;100.00;98957.17;109455;1250;60125;-73
2023/11/20 04:41:48;;;;;;;3.00;0.80;;;;;;;-0.19;100.00;98953.46;109441;1250;77137;-71
2023/11/20 04:44:16;;;;;;;1.50;0.50;;;;;;;-0.19;100.00;98953.98;109403;1250;66949;-80
2023/11/20 04:46:44;;;;;;;11.70;4.70;;;;;;;-0.19;100.00;98950.74;109392;1250;72745;-70
2023/11/20 04:49:12;;;;;;;4.80;1.70;;;;;;;-0.19;100.00;98953.18;109383;1250;60950;-70
2023/11/20 04:51:40;;;;;;;1.50;0.50;;;;;;;-0.19;100.00;98954.85;109418;1250;62128;-71
2023/11/20 04:54:07;;;;;;;1.30;0.30;;;;;;;-0.19;100.00;98955.70;109414;1250;74773;-71
2023/11/20 04:56:35;;;;;;;1.30;0.50;;;;;;;-0.19;100.00;98951.45;109383;1250;68210;-72
2023/11/20 04:59:04;;;;;;;0.50;0.20;;;;;;;-0.19;100.00;98948.90;109403;1252;72692;-71
2023/11/20 05:01:32;;;;;;;0.70;0.30;;;;;;;-0.21;100.00;98948.38;109383;1251;60245;-73
2023/11/20 05:04:00;;;;;;;2.00;0.50;;;;;;;-0.22;100.00;98947.64;109252;1251;59008;-79
2023/11/20 05:06:28;;;;;;;0.60;0.30;;;;;;;-0.21;100.00;98951.03;109433;1250;76048;-73
2023/11/20 05:08:56;;;;;;;1.00;0.30;;;;;;;-0.21;100.00;98945.34;109427;1250;65806;-74
2023/11/20 05:11:25;;;;;;;1.90;0.70;;;;;;;-0.20;100.00;98940.11;109400;1253;71435;-74
2023/11/20 05:13:58;;;;;;;2.60;1.10;;;;;;;-0.21;100.00;98946.69;109371;1250;59799;-75
2023/11/20 05:16:28;;;;;;;3.40;1.10;;;;;;;-0.20;100.00;98946.96;109402;1251;60084;-72
2023/11/20 05:18:56;;;;;;;1.90;0.70;;;;;;;-0.20;100.00;98941.17;109394;1250;74675;-71
2023/11/20 05:21:23;;;;;;;0.70;0.30;;;;;;;-0.19;100.00;98942.08;109390;1250;67196;-71
2023/11/20 05:23:51;;;;;;;7.30;4.30;;;;;;;-0.20;100.00;98940.09;109325;1251;71566;-75
2023/11/20 05:26:19;;;;;;;1.50;0.50;;;;;;;-0.19;100.00;98945.17;109287;1250;60569;-71
2023/11/20 05:28:46;;;;;;;1.00;0.40;;;;;;;-0.19;100.00;98944.40;109388;1250;60170;-72
2023/11/20 05:31:14;;;;;;;1.90;0.60;;;;;;;-0.17;100.00;98941.37;109401;1250;74765;-72
2023/11/20 05:33:42;;;;;;;6.20;2.30;;;;;;;-0.17;100.00;98937.59;109309;1250;65653;-72
2023/11/20 05:36:09;;;;;;;2.90;1.20;;;;;;;-0.15;100.00;98938.12;109328;1250;72436;-74
2023/11/20 05:38:38;;;;;;;1.90;0.70;;;;;;;-0.15;100.00;98937.44;109405;1250;60532;-74
2023/11/20 05:41:05;;;;;;;1.10;0.40;;;;;;;-0.14;100.00;98939.55;109409;1251;59137;-72
2023/11/20 05:43:33;;;;;;;1.80;0.40;;;;;;;-0.15;100.00;98940.79;109426;1251;74734;-74
2023/11/20 05:46:01;;;;;;;1.60;0.50;;;;;;;-0.15;100.00;98940.65;109413;1250;67395;-72
2023/11/20 05:48:28;;;;;;;14.70;4.60;;;;;;;-0.14;100.00;98943.96;109404;1250;71614;-72
2023/11/20 05:50:56;;;;;;;5.70;2.10;;;;;;;-0.13;100.00;98944.54;109226;1252;196153;-72
2023/11/20 05:53:24;;;;;;;18.30;6.30;;;;;;;-0.12;100.00;98944.75;109518;1250;60032;-73
2023/11/20 05:55:52;;;;;;;6.30;1.80;;;;;;;-0.09;100.00;98949.86;109545;1250;74717;-83
2023/11/20 05:58:19;;;;;;;5.10;1.80;;;;;;;-0.07;100.00;98948.09;109531;1250;67137;-72
2023/11/20 06:00:47;;;;;;;16.50;6.50;;;;;;;-0.06;100.00;98951.02;109434;1250;71858;-73
2023/11/20 06:03:15;;;;;;;21.50;7.20;;;;;;;-0.03;100.00;98952.14;109469;1250;60938;-73
2023/11/20 06:05:42;;;;;;;5.80;1.70;;;;;;;-0.02;100.00;98952.20;109473;1250;58984;-76
2023/11/20 06:08:10;;;;;;;2.90;1.10;;;;;;;0.01;100.00;98956.58;109454;1250;74747;-73
2023/11/20 06:10:38;;;;;;;3.40;1.00;;;;;;;0.03;100.00;98960.65;109512;1250;67641;-74
2023/11/20 06:13:07;;;;;;;4.30;1.40;;;;;;;0.04;100.00;98962.70;109446;1250;71157;-73
2023/11/20 06:15:35;;;;;;;1.90;0.60;;;;;;;0.05;100.00;98964.30;109456;1250;61448;-73
2023/11/20 06:18:02;;;;;;;3.70;1.20;;;;;;;0.05;100.00;98966.25;109464;1252;60102;-76
2023/11/20 06:20:31;;;;;;;6.20;1.60;;;;;;;0.04;100.00;98972.80;109465;1250;75399;-72
2023/11/20 06:22:59;;;;;;;3.90;1.50;;;;;;;0.03;100.00;98977.98;109373;1250;67214;-73
2023/11/20 06:25:26;;;;;;;5.60;2.10;;;;;;;0.03;100.00;98982.33;109501;1250;72446;-72
2023/11/20 06:27:54;;;;;;;4.50;1.60;;;;;;;0.03;100.00;98985.38;109349;1250;59644;-73
2023/11/20 06:30:22;;;;;;;3.80;1.50;;;;;;;0.06;100.00;98992.29;109428;1250;60076;-71
2023/11/20 06:32:50;;;;;;;2.40;0.70;;;;;;;0.08;100.00;98983.48;109572;1250;74697;-70
2023/11/20 06:35:17;;;;;;;4.50;1.90;;;;;;;0.08;100.00;98986.20;109489;1250;67003;-71
2023/11/20 06:37:45;;;;;;;5.30;2.40;;;;;;;0.10;100.00;98978.94;109381;1251;72841;-73
2023/11/20 06:40:12;;;;;;;4.90;2.30;;;;;;;0.11;100.00;98980.96;109277;1251;60942;-73
2023/11/20 06:42:40;;;;;;;9.30;3.90;;;;;;;0.12;100.00;98980.23;109324;1251;59219;-73
2023/11/20 06:45:08;;;;;;;20.90;10.90;;;;;;;0.12;100.00;98972.52;109365;1251;73917;-73
2023/11/20 06:47:36;;;;;;;10.00;4.30;;;;;;;0.15;100.00;98969.15;109331;1251;68073;-76
2023/11/20 06:50:04;;;;;;;8.10;3.90;;;;;;;0.20;100.00;98965.22;109305;1251;73224;-74
2023/11/20 06:52:32;;;;;;;6.90;3.60;;;;;;;0.27;100.00;98966.14;109298;1251;59911;-76
2023/11/20 06:54:59;;;;;;;4.40;2.20;;;;;;;0.32;100.00;98961.38;109392;1251;59948;-75
2023/11/20 06:57:28;;;;;;;2.50;1.20;;;;;;;0.37;100.00;98959.06;109419;1251;74749;-73
2023/11/20 06:59:55;;;;;;;5.00;2.10;;;;;;;0.43;100.00;98962.02;109436;1252;65679;-73
2023/11/20 07:02:23;;;;;;;4.90;1.80;;;;;;;0.50;100.00;98962.06;109418;1252;72732;-73
2023/11/20 07:04:51;;;;;;;8.40;3.30;;;;;;;0.54;100.00;98956.48;109425;1253;59641;-72
2023/11/20 07:07:22;;;;;;;8.60;3.50;;;;;;;0.57;100.00;98953.27;109378;1251;60122;-71
2023/11/20 07:09:50;;;;;;;7.10;3.30;;;;;;;0.63;100.00;98951.65;109236;1250;74740;-77
2023/11/20 07:12:18;;;;;;;5.80;2.30;;;;;;;0.69;100.00;98946.81;109520;1251;67063;-72
2023/11/20 07:14:46;;;;;;;8.90;3.80;;;;;;;0.74;100.00;98945.45;109489;1250;72694;-71
2023/11/20 07:17:13;;;;;;;6.40;2.30;;;;;;;0.78;100.00;98945.30;109473;1252;59658;-72
2023/11/20 07:19:42;;;;;;;5.00;1.90;;;;;;;0.82;100.00;98948.64;109449;1250;59227;-78
2023/11/20 07:22:09;;;;;;;3.00;1.40;;;;;;;0.87;100.00;98948.95;109511;1250;74738;-71
2023/11/20 07:24:37;;;;;;;3.80;1.50;;;;;;;0.91;100.00;98952.86;109481;1250;66846;-70
2023/11/20 07:27:04;;;;;;;6.10;1.70;;;;;;;0.94;100.00;98955.56;109493;1250;72734;-70
2023/11/20 07:29:32;;;;;;;4.70;1.90;;;;;;;0.99;100.00;98952.92;109392;1250;59707;-71
2023/11/20 07:32:00;;;;;;;4.40;1.90;;;;;;;1.02;100.00;98948.19;109471;1250;59668;-70
2023/11/20 07:34:27;;;;;;;4.50;1.60;;;;;;;1.07;100.00;98936.54;109461;1250;73631;-71
2023/11/20 07:36:55;;;;;;;3.30;0.80;;;;;;;1.15;100.00;98930.24;109462;1250;65678;-71
2023/11/20 07:39:24;;;;;;;1.80;0.60;;;;;;;1.29;100.00;98930.58;109384;1250;72737;-73
2023/11/20 07:41:51;;;;;;;2.50;1.00;;;;;;;1.44;100.00;98926.42;109478;1250;61028;-73
2023/11/20 07:44:20;;;;;;;9.90;0.80;;;;;;;1.60;100.00;98921.35;109524;1250;60032;-69
2023/11/20 07:46:48;;;;;;;2.00;0.60;;;;;;;1.78;100.00;98918.31;109466;1250;74693;-67
2023/11/20 07:49:15;;;;;;;2.10;0.80;;;;;;;1.87;100.00;98916.98;109438;1250;66934;-71
2023/11/20 07:51:43;;;;;;;1.90;0.80;;;;;;;2.03;100.00;98917.74;109493;1250;72658;-67
2023/11/20 07:54:11;;;;;;;1.80;0.70;;;;;;;2.09;100.00;98918.31;109466;1250;59724;-68
2023/11/20 07:56:38;;;;;;;3.20;1.10;;;;;;;2.16;100.00;98911.35;109453;1250;60120;-71
2023/11/20 07:59:06;;;;;;;1.60;0.60;;;;;;;2.26;100.00;98902.27;109470;1250;74748;-72
2023/11/20 08:01:35;;;;;;;1.50;0.50;;;;;;;2.26;100.00;98903.11;109483;1250;65926;-72
2023/11/20 08:04:04;;;;;;;1.90;0.70;;;;;;;2.17;100.00;98896.60;109450;1250;74652;-69
2023/11/20 08:06:32;;;;;;;1.40;0.50;;;;;;;2.03;100.00;98896.12;109447;1250;62404;-69
2023/11/20 08:09:00;;;;;;;3.20;0.80;;;;;;;1.97;100.00;98890.29;109448;1250;62399;-69
2023/11/20 08:11:27;;;;;;;3.60;1.10;;;;;;;1.92;100.00;98889.77;109466;1250;74746;-68
2023/11/20 08:13:55;;;;;;;2.70;0.90;;;;;;;1.88;100.00;98894.10;109441;1250;68784;-69
2023/11/20 08:16:23;;;;;;;1.70;0.70;;;;;;;1.87;100.00;98890.96;109437;1250;74821;-68
2023/11/20 08:18:52;;;;;;;2.50;0.80;;;;;;;1.89;100.00;98895.77;109420;1250;61508;-70
2023/11/20 08:21:20;;;;;;;1.70;0.80;;;;;;;1.92;100.00;98902.62;109471;1250;60287;-69
2023/11/20 08:23:49;;;;;;;2.60;1.20;;;;;;;1.93;100.00;98907.82;109450;1250;77100;-69
2023/11/20 08:26:17;;;;;;;1.90;0.90;;;;;;;1.96;100.00;98911.81;109512;1250;67789;-68
2023/11/20 08:28:45;;;;;;;5.40;2.00;;;;;;;1.95;100.00;98905.19;109439;1252;72763;-70
2023/11/20 08:31:13;;;;;;;2.10;0.90;;;;;;;1.93;100.00;98907.34;109399;1252;62416;-69
2023/11/20 08:33:41;;;;;;;2.70;0.70;;;;;;;1.88;100.00;98906.98;109463;1250;60089;-68
2023/11/20 08:36:09;;;;;;;2.40;1.30;;;;;;;1.79;100.00;98914.25;109452;1250;74794;-69
2023/11/20 08:38:37;;;;;;;5.30;2.50;;;;;;;1.74;100.00;98916.55;109517;1250;67079;-68
2023/11/20 08:41:04;;;;;;;7.90;3.30;;;;;;;1.65;100.00;98914.86;109448;1250;73729;-68
2023/11/20 08:43:32;;;;;;;16.40;7.50;;;;;;;1.64;100.00;98913.39;109471;1250;60893;-68
2023/11/20 08:46:00;;;;;;;10.80;4.90;;;;;;;1.69;100.00;98912.05;109460;1250;58948;-68
2023/11/20 08:48:41;;;;;;;3.60;1.40;;;;;;;1.78;100.00;98910.97;109399;1250;74669;-70
2023/11/20 08:51:09;;;;;;;4.70;2.50;;;;;;;1.82;100.00;98912.60;109382;1252;68324;-70
2023/11/20 08:53:36;;;;;;;6.50;1.30;;;;;;;1.87;100.00;98916.46;109390;1251;72713;-69
2023/11/20 08:56:04;;;;;;;3.10;1.40;;;;;;;1.89;100.00;98915.63;109323;1251;60992;-70
2023/11/20 08:58:32;;;;;;;6.40;1.90;;;;;;;1.91;100.00;98916.27;109357;1251;60278;-69
2023/11/20 09:00:59;;;;;;;3.90;1.10;;;;;;;1.89;100.00;98917.48;109345;1254;77398;-68
2023/11/20 09:03:27;;;;;;;2.40;0.80;;;;;;;1.87;100.00;98919.10;109392;1251;69349;-69
2023/11/20 09:05:55;;;;;;;1.50;0.60;;;;;;;1.87;100.00;98920.30;109349;1251;71440;-68
2023/11/20 09:08:23;;;;;;;3.10;1.50;;;;;;;1.85;100.00;98917.55;109311;1253;59639;-68
2023/11/20 09:10:50;;;;;;;2.80;1.20;;;;;;;1.87;100.00;98914.98;109329;1251;62154;-67
2023/11/20 09:13:18;;;;;;;2.80;1.10;;;;;;;1.89;100.00;98911.67;109375;1251;77288;-67
2023/11/20 09:15:46;;;;;;;3.50;1.20;;;;;;;1.94;100.00;98907.20;109345;1251;65723;-67
2023/11/20 09:18:13;;;;;;;4.70;1.90;;;;;;;2.07;100.00;98900.17;109347;1253;73042;-67
2023/11/20 09:20:41;;;;;;;1.90;0.70;;;;;;;2.17;100.00;98896.21;109293;1251;61768;-66
2023/11/20 09:23:09;;;;;;;1.90;0.60;;;;;;;2.22;100.00;98905.30;109441;1250;59093;-66
2023/11/20 09:25:36;;;;;;;2.90;1.30;;;;;;;2.24;100.00;98906.79;109418;1251;76611;-66
2023/11/20 09:28:04;;;;;;;3.50;1.30;;;;;;;2.27;100.00;98907.00;109459;1250;65696;-67
2023/11/20 09:30:32;;;;;;;3.50;1.10;;;;;;;2.34;100.00;98901.27;109453;1250;72713;-67
2023/11/20 09:33:00;;;;;;;3.20;1.20;;;;;;;2.40;100.00;98898.91;109437;1251;61765;-66
2023/11/20 09:35:28;;;;;;;4.50;1.80;;;;;;;2.50;100.00;98899.89;109419;1251;62452;-66
2023/11/20 09:37:55;;;;;;;4.70;1.50;;;;;;;2.55;100.00;98900.27;109418;1250;76701;-66
2023/11/20 09:40:23;;;;;;;8.50;5.20;;;;;;;2.56;100.00;98896.46;109381;1250;65950;-66
2023/11/20 09:42:51;;;;;;;3.30;1.40;;;;;;;2.61;100.00;98895.91;109465;1251;74956;-66
2023/11/20 09:45:28;;;;;;;2.60;1.00;;;;;;;2.58;100.00;98894.59;109271;1251;61094;-66
2023/11/20 09:47:56;;;;;;;1.80;0.70;;;;;;;2.56;100.00;98897.36;109421;1250;62733;-66
2023/11/20 09:50:28;;;;;;;1.40;0.60;;;;;;;2.54;100.00;98898.79;109249;1251;75699;-68
2023/11/20 09:52:57;;;;;;;2.10;0.60;;;;;;;2.53;100.00;98899.11;109447;1251;68876;-68
2023/11/20 09:55:25;;;;;;;1.60;0.70;;;;;;;2.55;100.00;98895.98;109457;1251;72740;-68
2023/11/20 09:57:53;;;;;;;1.30;0.50;;;;;;;2.51;100.00;98892.73;109438;1251;59641;-66
2023/11/20 10:00:22;;;;;;;3.20;1.00;;;;;;;2.53;100.00;98889.70;109411;1251;60237;-66
2023/11/20 10:02:49;;;;;;;2.80;1.10;;;;;;;2.65;100.00;98892.14;109479;1251;76649;-66
2023/11/20 10:05:22;;;;;;;2.50;1.10;;;;;;;2.77;100.00;98890.97;109316;1250;67016;-66
2023/11/20 10:08:01;;;;;;;3.20;1.50;;;;;;;2.78;100.00;98887.11;109382;1251;75794;-66
2023/11/20 10:10:29;;;;;;;2.70;1.10;;;;;;;2.80;100.00;98878.67;109433;1251;63978;-66
2023/11/20 10:12:57;;;;;;;4.40;1.20;;;;;;;2.88;100.00;98869.40;109447;1251;60946;-67
2023/11/20 10:15:26;;;;;;;5.20;2.50;;;;;;;2.95;100.00;98874.13;109416;1251;75766;-66
2023/11/20 10:17:54;;;;;;;6.50;2.20;;;;;;;2.96;100.00;98873.96;109261;1251;68416;-66
2023/11/20 10:20:22;;;;;;;6.00;2.60;;;;;;;3.01;100.00;98877.35;109422;1251;72740;-66
2023/11/20 10:22:49;;;;;;;6.00;3.00;;;;;;;3.04;100.00;98876.87;109423;1250;61751;-66
2023/11/20 10:25:17;;;;;;;4.50;1.90;;;;;;;3.09;100.00;98874.11;109464;1250;59167;-65
2023/11/20 10:27:44;;;;;;;4.20;2.30;;;;;;;3.13;100.00;98873.98;109449;1255;73877;-66
2023/11/20 10:30:13;;;;;;;3.80;1.60;;;;;;;3.16;100.00;98876.18;109410;1250;65651;-66
2023/11/20 10:32:41;;;;;;;3.00;1.40;;;;;;;3.16;100.00;98869.85;109442;1250;72726;-67
2023/11/20 10:35:17;;;;;;;2.80;1.20;;;;;;;3.17;100.00;98866.81;109496;1250;62732;-65
2023/11/20 10:37:58;;;;;;;2.80;1.50;;;;;;;3.25;100.00;98870.64;109397;1250;61103;-68
2023/11/20 10:40:25;;;;;;;5.10;3.10;;;;;;;3.30;100.00;98870.65;109468;1250;78045;-66
2023/11/20 10:42:53;;;;;;;10.40;4.00;;;;;;;3.22;100.00;98874.35;109498;1250;69131;-66
2023/11/20 10:45:23;;;;;;;21.40;6.50;;;;;;;3.15;100.00;98876.81;109429;1250;73586;-66
2023/11/20 10:47:51;;;;;;;23.30;7.90;;;;;;;3.15;100.00;98877.72;109454;1250;60285;-66
2023/11/20 10:50:21;;;;;;;11.00;4.20;;;;;;;3.18;100.00;98881.37;109498;1256;62098;-66
2023/11/20 10:52:49;;;;;;;4.40;1.30;;;;;;;3.27;100.00;98887.04;109497;1250;73723;-66
2023/11/20 10:55:17;;;;;;;11.10;3.30;;;;;;;3.29;100.00;98888.02;109470;1250;69009;-64
2023/11/20 10:57:45;;;;;;;14.30;4.70;;;;;;;3.30;100.00;98887.77;109436;1250;72784;-66
2023/11/20 11:00:15;;;;;;;9.10;3.70;;;;;;;3.24;100.00;98890.89;109426;1252;62727;-65
2023/11/20 11:02:44;;;;;;;11.10;4.10;;;;;;;3.17;100.00;98888.02;109512;1250;60013;-65
2023/11/20 11:05:12;;;;;;;28.80;13.00;;;;;;;3.07;100.00;98894.19;109522;1249;75995;-65
2023/11/20 11:07:40;;;;;;;34.90;28.50;;;;;;;2.94;100.00;98899.50;109373;1250;68245;-66
2023/11/20 11:10:10;;;;;;;19.10;11.80;;;;;;;2.82;100.00;98905.42;109545;1250;72736;-65
2023/11/20 11:12:40;;;;;;;7.10;3.30;;;;;;;2.76;100.00;98906.38;109501;1252;62843;-65
2023/11/20 11:15:15;;;;;;;19.10;7.50;;;;;;;2.65;100.00;98904.84;109418;1250;61250;-66
2023/11/20 11:17:53;;;;;;;11.80;4.70;;;;;;;2.55;100.00;98904.83;109243;1250;77917;-65
2023/11/20 11:20:23;;;;;;;12.10;4.50;;;;;;;2.50;100.00;98904.15;109453;1250;70056;-65
2023/11/20 11:22:55;;;;;;;10.60;4.50;;;;;;;2.44;100.00;98904.66;109298;1250;71163;-65
2023/11/20 11:25:24;;;;;;;13.70;6.00;;;;;;;2.36;100.00;98908.27;109420;1253;63291;-66